Time;durP1;ratioP1;P1;durP2;ratioP2;P2;SDS_P1;SDS_P2;PMS_P1;PMS_P2;Temp;Humidity;BMP_temperature;BMP_pressure;BME280_temperature;BME280_humidity;BME280_pressure;Samples;Min_cycle;Max_cycle;Signal;HPM_P1;HPM_P2
2023/07/21 00:05:03;;;;;;;;;;;16.70;99.90;;;;;;12491006;28;19928;-42
2023/07/21 00:11:05;;;;;;;;;;;16.60;99.90;;;;;;12485673;28;19972;-42
2023/07/21 00:17:08;;;;;;;;;;;16.40;99.90;;;;;;12503514;28;19928;-42
2023/07/21 00:23:09;;;;;;;;;;;16.00;99.90;;;;;;12497185;28;19928;-42
2023/07/21 00:29:11;;;;;;;;;;;16.10;99.90;;;;;;12472666;28;19921;-42
2023/07/21 00:35:13;;;;;;;;;;;16.10;99.90;;;;;;12520703;28;20015;-42
2023/07/21 00:41:15;;;;;;;;;;;16.30;99.90;;;;;;12497968;28;20352;-41
2023/07/21 00:47:17;;;;;;;;;;;16.30;99.90;;;;;;12511069;28;19925;-42
2023/07/21 00:53:20;;;;;;;;;;;16.20;99.90;;;;;;12513790;28;20388;-42
2023/07/21 00:59:21;;;;;;;;;;;16.20;99.90;;;;;;12523374;28;19932;-42
2023/07/21 01:05:24;;;;;;;;;;;16.10;99.90;;;;;;12525633;28;19929;-42
2023/07/21 01:11:26;;;;;;;;;;;15.90;99.90;;;;;;12478758;28;19956;-42
2023/07/21 01:17:29;;;;;;;;;;;15.80;99.90;;;;;;12517384;28;19921;-42
2023/07/21 01:23:54;;;;;;;;;;;15.70;99.90;;;;;;12522925;28;19921;-42
2023/07/21 01:29:58;;;;;;;;;;;15.60;99.90;;;;;;12516683;28;19936;-42
2023/07/21 01:36:01;;;;;;;;;;;15.60;99.90;;;;;;12509697;28;20007;-42
2023/07/21 01:42:03;;;;;;;;;;;15.70;99.90;;;;;;12503626;28;19921;-42
2023/07/21 01:48:07;;;;;;;;;;;15.60;99.90;;;;;;12502002;28;19925;-42
2023/07/21 01:54:13;;;;;;;;;;;15.50;99.90;;;;;;12489724;28;19920;-41
2023/07/21 02:00:16;;;;;;;;;;;15.40;99.90;;;;;;12497105;28;19960;-41
2023/07/21 02:06:17;;;;;;;;;;;15.20;99.90;;;;;;12511347;28;19925;-42
2023/07/21 02:12:20;;;;;;;;;;;15.00;99.90;;;;;;12529760;28;20424;-42
2023/07/21 02:18:22;;;;;;;;;;;15.00;99.90;;;;;;12509089;28;19925;-42
2023/07/21 02:24:23;;;;;;;;;;;15.00;99.90;;;;;;12510582;28;19974;-42
2023/07/21 02:30:25;;;;;;;;;;;15.10;99.90;;;;;;12528120;28;21036;-42
2023/07/21 02:36:27;;;;;;;;;;;15.10;99.90;;;;;;12531924;28;20334;-42
2023/07/21 02:42:29;;;;;;;;;;;15.20;99.90;;;;;;12510963;28;20369;-41
2023/07/21 02:48:33;;;;;;;;;;;15.40;99.90;;;;;;12516007;28;19920;-42
2023/07/21 02:54:36;;;;;;;;;;;15.50;99.90;;;;;;12522780;28;20421;-42
2023/07/21 03:00:38;;;;;;;;;;;15.40;99.90;;;;;;12520929;28;19939;-42
2023/07/21 03:06:41;;;;;;;;;;;15.20;99.90;;;;;;12529609;28;19925;-42
2023/07/21 03:12:43;;;;;;;;;;;15.10;99.90;;;;;;12517165;28;20047;-42
2023/07/21 03:18:45;;;;;;;;;;;15.10;99.90;;;;;;12520423;28;20397;-42
2023/07/21 03:24:47;;;;;;;;;;;14.90;99.90;;;;;;12507510;28;19924;-42
2023/07/21 03:30:56;;;;;;;;;;;14.60;99.90;;;;;;12522261;28;19921;-42
2023/07/21 03:36:57;;;;;;;;;;;14.40;99.90;;;;;;12507487;28;20008;-42
2023/07/21 03:42:59;;;;;;;;;;;14.60;99.90;;;;;;12481698;28;20312;-43
2023/07/21 03:49:01;;;;;;;;;;;14.50;99.90;;;;;;12492359;28;19925;-42
2023/07/21 03:55:03;;;;;;;;;;;14.50;99.90;;;;;;12502735;28;19948;-42
2023/07/21 04:01:05;;;;;;;;;;;14.70;99.90;;;;;;12511667;28;19932;-42
2023/07/21 04:07:07;;;;;;;;;;;14.70;99.90;;;;;;12489492;28;20004;-42
2023/07/21 04:13:09;;;;;;;;;;;15.10;99.90;;;;;;12518553;28;19928;-42
2023/07/21 04:19:11;;;;;;;;;;;15.50;99.90;;;;;;12521369;28;19974;-42
2023/07/21 04:25:15;;;;;;;;;;;16.30;99.90;;;;;;12497831;28;19921;-42
2023/07/21 04:31:21;;;;;;;;;;;16.70;99.90;;;;;;12505546;28;19924;-42
2023/07/21 04:37:23;;;;;;;;;;;17.10;99.90;;;;;;12489522;28;19925;-42
2023/07/21 04:43:25;;;;;;;;;;;17.60;99.90;;;;;;12514523;28;19928;-43
2023/07/21 04:49:26;;;;;;;;;;;17.10;99.90;;;;;;12494880;28;20356;-42
2023/07/21 04:55:28;;;;;;;;;;;16.60;99.90;;;;;;12502793;28;19944;-42
2023/07/21 05:01:31;;;;;;;;;;;16.10;99.90;;;;;;12509527;28;19932;-42
2023/07/21 05:07:33;;;;;;;;;;;15.80;99.90;;;;;;12515608;28;19935;-42
2023/07/21 05:13:34;;;;;;;;;;;15.70;99.90;;;;;;12495086;28;19960;-42
2023/07/21 05:19:37;;;;;;;;;;;15.50;99.90;;;;;;12512454;28;19928;-42
2023/07/21 05:25:39;;;;;;;;;;;15.50;99.90;;;;;;12517123;28;19924;-42
2023/07/21 05:31:41;;;;;;;;;;;15.40;99.90;;;;;;12501684;28;20003;-42
2023/07/21 05:37:42;;;;;;;;;;;15.50;99.90;;;;;;12503946;28;20011;-42
2023/07/21 05:43:44;;;;;;;;;;;15.60;99.90;;;;;;12493836;28;19931;-42
2023/07/21 05:49:46;;;;;;;;;;;15.80;99.90;;;;;;12515726;28;20377;-43
2023/07/21 05:55:50;;;;;;;;;;;15.70;99.90;;;;;;12491711;28;19921;-42
2023/07/21 06:01:53;;;;;;;;;;;15.90;99.90;;;;;;12497021;28;19928;-42
2023/07/21 06:07:54;;;;;;;;;;;16.00;99.90;;;;;;12484287;28;19925;-42
2023/07/21 06:13:57;;;;;;;;;;;16.20;99.90;;;;;;12504968;28;19936;-42
2023/07/21 06:19:58;;;;;;;;;;;16.30;99.90;;;;;;12516862;28;19971;-42
2023/07/21 06:26:00;;;;;;;;;;;16.30;99.90;;;;;;12501611;28;19921;-42
2023/07/21 06:32:02;;;;;;;;;;;16.40;99.90;;;;;;12509288;28;20318;-42
2023/07/21 06:38:05;;;;;;;;;;;16.50;99.90;;;;;;12503026;28;19925;-42
2023/07/21 06:44:07;;;;;;;;;;;16.80;99.90;;;;;;12501947;28;19965;-42
2023/07/21 06:50:09;;;;;;;;;;;16.90;99.90;;;;;;12518636;28;20392;-42
2023/07/21 06:56:13;;;;;;;;;;;16.90;99.90;;;;;;12488771;28;19925;-42
2023/07/21 07:02:15;;;;;;;;;;;17.00;99.90;;;;;;12504219;28;19943;-42
2023/07/21 07:08:17;;;;;;;;;;;17.00;99.90;;;;;;12490555;28;20757;-42
2023/07/21 07:14:19;;;;;;;;;;;17.20;99.90;;;;;;12505114;28;19921;-42
2023/07/21 07:20:20;;;;;;;;;;;17.40;99.90;;;;;;12508105;28;19964;-42
2023/07/21 07:26:22;;;;;;;;;;;17.60;99.90;;;;;;12508764;28;20349;-42
2023/07/21 07:32:24;;;;;;;;;;;17.60;99.90;;;;;;12486383;28;19921;-42
2023/07/21 07:38:27;;;;;;;;;;;17.40;99.90;;;;;;12486566;28;20020;-42
2023/07/21 07:44:29;;;;;;;;;;;17.40;99.90;;;;;;12498295;28;19924;-42
2023/07/21 07:50:30;;;;;;;;;;;17.60;99.90;;;;;;12505600;28;19963;-42
2023/07/21 07:56:32;;;;;;;;;;;17.80;99.90;;;;;;12508305;28;19929;-42
2023/07/21 08:02:34;;;;;;;;;;;17.90;99.90;;;;;;12517673;28;19921;-42
2023/07/21 08:08:36;;;;;;;;;;;17.90;99.90;;;;;;12497047;28;19920;-42
2023/07/21 08:14:38;;;;;;;;;;;18.10;99.90;;;;;;12501343;28;19928;-42
2023/07/21 08:20:40;;;;;;;;;;;18.40;99.90;;;;;;12512083;28;19964;-42
2023/07/21 08:26:42;;;;;;;;;;;18.50;99.90;;;;;;12491047;28;20019;-42
2023/07/21 08:32:44;;;;;;;;;;;18.40;99.90;;;;;;12493494;28;19924;-43
2023/07/21 08:38:46;;;;;;;;;;;18.80;99.90;;;;;;12484714;28;19921;-43
2023/07/21 08:44:48;;;;;;;;;;;18.80;99.90;;;;;;12502301;28;19950;-42
2023/07/21 08:50:51;;;;;;;;;;;18.90;99.90;;;;;;12482434;28;19968;-42
2023/07/21 08:56:53;;;;;;;;;;;19.20;99.90;;;;;;12489544;28;20092;-42
2023/07/21 09:02:59;;;;;;;;;;;19.50;99.90;;;;;;12517839;28;19920;-42
2023/07/21 09:09:01;;;;;;;;;;;19.60;99.90;;;;;;12520955;28;19968;-43
2023/07/21 09:15:10;;;;;;;;;;;19.80;99.90;;;;;;12515497;28;19921;-43
2023/07/21 09:21:21;;;;;;;;;;;20.00;99.90;;;;;;12526804;28;19966;-42
2023/07/21 09:27:23;;;;;;;;;;;19.60;99.90;;;;;;12507646;28;19955;-43
2023/07/21 09:33:25;;;;;;;;;;;19.70;99.90;;;;;;12503540;28;19994;-42
2023/07/21 09:39:26;;;;;;;;;;;19.70;99.90;;;;;;12497958;28;19920;-43
2023/07/21 09:45:29;;;;;;;;;;;19.80;99.90;;;;;;12505494;28;19941;-43
2023/07/21 09:51:32;;;;;;;;;;;20.00;99.90;;;;;;12504623;28;19971;-43
2023/07/21 09:57:40;;;;;;;;;;;20.20;99.90;;;;;;12496413;28;19968;-43
2023/07/21 10:03:43;;;;;;;;;;;20.00;99.90;;;;;;12513668;28;19924;-43
2023/07/21 10:09:47;;;;;;;;;;;19.10;99.90;;;;;;12509727;28;19921;-43
2023/07/21 10:15:48;;;;;;;;;;;18.60;99.90;;;;;;12513997;28;19925;-42
2023/07/21 10:21:51;;;;;;;;;;;18.30;99.90;;;;;;12500731;28;20301;-43
2023/07/21 10:28:03;;;;;;;;;;;18.30;99.90;;;;;;12511691;28;20019;-43
2023/07/21 10:34:12;;;;;;;;;;;17.50;99.90;;;;;;12509560;28;19921;-43
2023/07/21 10:40:13;;;;;;;;;;;17.70;99.90;;;;;;12480697;28;19925;-43
2023/07/21 10:46:15;;;;;;;;;;;17.40;99.90;;;;;;12497775;28;20007;-42
2023/07/21 10:52:17;;;;;;;;;;;17.10;99.90;;;;;;12495681;28;19932;-42
2023/07/21 10:58:19;;;;;;;;;;;16.80;99.90;;;;;;12481177;28;19968;-42
2023/07/21 11:04:21;;;;;;;;;;;16.70;99.90;;;;;;12500493;28;19921;-42
2023/07/21 11:10:30;;;;;;;;;;;16.90;99.90;;;;;;12519506;28;19929;-42
2023/07/21 11:16:32;;;;;;;;;;;17.00;99.90;;;;;;12516441;28;19928;-43
2023/07/21 11:22:34;;;;;;;;;;;16.80;99.90;;;;;;12508777;28;20294;-42
2023/07/21 11:28:40;;;;;;;;;;;16.90;99.90;;;;;;12492911;28;19959;-42
2023/07/21 11:34:42;;;;;;;;;;;17.20;99.90;;;;;;12508312;28;20369;-43
2023/07/21 11:40:47;;;;;;;;;;;17.50;99.90;;;;;;12512607;28;20426;-43
2023/07/21 11:46:56;;;;;;;;;;;17.50;99.90;;;;;;12494109;28;19963;-42
2023/07/21 11:52:59;;;;;;;;;;;18.00;99.90;;;;;;12510456;28;19928;-42
2023/07/21 11:59:01;;;;;;;;;;;18.30;99.90;;;;;;12499386;28;19941;-42
2023/07/21 12:05:07;;;;;;;;;;;18.20;99.90;;;;;;12492429;28;19932;-42
2023/07/21 12:11:09;;;;;;;;;;;18.70;99.90;;;;;;12511100;28;20401;-42
2023/07/21 12:17:14;;;;;;;;;;;19.20;99.90;;;;;;12530517;28;19959;-43
2023/07/21 12:23:19;;;;;;;;;;;19.50;99.90;;;;;;12516879;28;19929;-42
2023/07/21 12:29:21;;;;;;;;;;;19.90;99.90;;;;;;12501099;28;20389;-49
2023/07/21 12:35:44;;;;;;;;;;;20.20;99.90;;;;;;12526497;28;19928;-43
2023/07/21 12:41:45;;;;;;;;;;;20.20;99.90;;;;;;12499517;28;19943;-42
2023/07/21 12:47:48;;;;;;;;;;;19.90;99.90;;;;;;12511377;28;19951;-43
2023/07/21 12:53:49;;;;;;;;;;;19.40;99.90;;;;;;12514947;28;19936;-43
2023/07/21 12:59:51;;;;;;;;;;;19.30;99.90;;;;;;12531009;28;20097;-43
2023/07/21 13:05:53;;;;;;;;;;;18.90;99.90;;;;;;12506231;28;19958;-42
2023/07/21 13:11:58;;;;;;;;;;;18.20;99.90;;;;;;12513853;28;19921;-42
2023/07/21 13:17:59;;;;;;;;;;;17.60;99.90;;;;;;12536642;28;19929;-43
2023/07/21 13:24:02;;;;;;;;;;;17.30;99.90;;;;;;12501680;28;20012;-43
2023/07/21 13:30:05;;;;;;;;;;;17.20;99.90;;;;;;12513394;28;20305;-43
2023/07/21 13:36:09;;;;;;;;;;;17.00;99.90;;;;;;12491006;28;20031;-42
2023/07/21 13:42:14;;;;;;;;;;;16.80;99.90;;;;;;12509180;28;19928;-43
2023/07/21 13:48:16;;;;;;;;;;;16.60;99.90;;;;;;12523952;28;20402;-42
2023/07/21 13:54:18;;;;;;;;;;;16.40;99.90;;;;;;12466404;28;20027;-42
2023/07/21 14:00:21;;;;;;;;;;;16.00;99.90;;;;;;12501020;28;20019;-42
2023/07/21 14:06:23;;;;;;;;;;;15.80;99.90;;;;;;12507961;28;19955;-42
2023/07/21 14:12:25;;;;;;;;;;;15.50;99.90;;;;;;12502307;28;19975;-42
2023/07/21 14:18:27;;;;;;;;;;;15.30;99.90;;;;;;12500845;28;19924;-42
2023/07/21 14:24:29;;;;;;;;;;;15.30;99.90;;;;;;12512303;28;19986;-42
2023/07/21 14:30:31;;;;;;;;;;;15.70;99.90;;;;;;12515805;28;19925;-42
2023/07/21 14:36:32;;;;;;;;;;;16.30;99.90;;;;;;12498922;28;19929;-42
2023/07/21 14:42:35;;;;;;;;;;;16.70;99.90;;;;;;12511133;28;19929;-43
2023/07/21 14:48:37;;;;;;;;;;;16.80;99.90;;;;;;12505444;28;19928;-42
2023/07/21 14:54:38;;;;;;;;;;;16.90;99.90;;;;;;12491729;28;19924;-43
2023/07/21 15:00:41;;;;;;;;;;;17.10;99.90;;;;;;12500758;28;20015;-43
2023/07/21 15:06:42;;;;;;;;;;;17.10;99.90;;;;;;12494422;28;20023;-42
2023/07/21 15:12:44;;;;;;;;;;;17.10;99.90;;;;;;12507788;28;19959;-43
2023/07/21 15:18:47;;;;;;;;;;;17.70;99.90;;;;;;12513180;28;19951;-42
2023/07/21 15:24:49;;;;;;;;;;;18.40;99.90;;;;;;12521434;28;19970;-43
2023/07/21 15:30:51;;;;;;;;;;;18.90;99.90;;;;;;12496497;28;19967;-42
2023/07/21 15:36:53;;;;;;;;;;;19.30;99.90;;;;;;12510305;28;19927;-43
2023/07/21 15:42:55;;;;;;;;;;;19.70;99.90;;;;;;12494808;28;19971;-42
2023/07/21 15:48:57;;;;;;;;;;;19.70;99.90;;;;;;12485475;28;19928;-42
2023/07/21 15:54:58;;;;;;;;;;;19.40;99.90;;;;;;12509708;28;19920;-42
2023/07/21 16:01:02;;;;;;;;;;;19.00;99.90;;;;;;12511946;28;19932;-42
2023/07/21 16:07:03;;;;;;;;;;;18.70;99.90;;;;;;12505169;28;19924;-42
2023/07/21 16:13:05;;;;;;;;;;;18.40;99.90;;;;;;12483512;28;19921;-42
2023/07/21 16:19:07;;;;;;;;;;;18.20;99.90;;;;;;12503835;28;19932;-42
2023/07/21 16:25:09;;;;;;;;;;;18.10;99.90;;;;;;12522066;28;19920;-43
2023/07/21 16:31:11;;;;;;;;;;;17.90;99.90;;;;;;12500545;28;19929;-42
2023/07/21 16:37:12;;;;;;;;;;;17.70;99.90;;;;;;12485677;28;19921;-42
2023/07/21 16:43:15;;;;;;;;;;;17.10;99.90;;;;;;12518316;28;19928;-42
2023/07/21 16:49:16;;;;;;;;;;;16.30;99.90;;;;;;12516720;28;19921;-42
2023/07/21 16:55:18;;;;;;;;;;;15.90;99.90;;;;;;12498841;28;19925;-42
2023/07/21 17:01:20;;;;;;;;;;;15.70;99.90;;;;;;12516982;28;19924;-42
2023/07/21 17:07:22;;;;;;;;;;;15.40;99.90;;;;;;12487380;28;20350;-42
2023/07/21 17:13:25;;;;;;;;;;;15.30;99.90;;;;;;12495317;28;19924;-42
2023/07/21 17:19:27;;;;;;;;;;;15.10;99.90;;;;;;12497764;28;19921;-43
2023/07/21 17:25:29;;;;;;;;;;;15.10;99.90;;;;;;12507610;28;20283;-42
2023/07/21 17:31:31;;;;;;;;;;;15.10;99.90;;;;;;12512492;28;19994;-43
2023/07/21 17:37:34;;;;;;;;;;;15.10;99.90;;;;;;12506736;28;20368;-42
2023/07/21 17:43:36;;;;;;;;;;;15.10;99.90;;;;;;12527613;28;19921;-42
2023/07/21 17:49:38;;;;;;;;;;;15.10;99.90;;;;;;12507708;28;19925;-42
2023/07/21 17:55:40;;;;;;;;;;;15.10;99.90;;;;;;12485556;28;19928;-42
2023/07/21 18:01:42;;;;;;;;;;;15.20;99.90;;;;;;12514410;28;19932;-42
2023/07/21 18:07:44;;;;;;;;;;;15.00;99.90;;;;;;12494866;28;19925;-42
2023/07/21 18:13:46;;;;;;;;;;;15.00;99.90;;;;;;12511649;28;20015;-41
2023/07/21 18:19:50;;;;;;;;;;;15.10;99.90;;;;;;12497287;28;20339;-41
2023/07/21 18:25:51;;;;;;;;;;;15.00;99.90;;;;;;12511488;28;20003;-42
2023/07/21 18:31:53;;;;;;;;;;;15.00;99.90;;;;;;12503869;28;19920;-42
2023/07/21 18:37:55;;;;;;;;;;;14.90;99.90;;;;;;12497052;28;19925;-42
2023/07/21 18:43:57;;;;;;;;;;;14.90;99.90;;;;;;12500058;28;19921;-42
2023/07/21 18:49:59;;;;;;;;;;;15.10;99.90;;;;;;12502590;28;20015;-42
2023/07/21 18:56:04;;;;;;;;;;;15.30;99.90;;;;;;12488960;28;20201;-42
2023/07/21 19:02:06;;;;;;;;;;;15.20;99.90;;;;;;12509941;28;19956;-42
2023/07/21 19:08:08;;;;;;;;;;;15.30;99.90;;;;;;12496457;28;19921;-42
2023/07/21 19:14:11;;;;;;;;;;;15.60;99.90;;;;;;12504508;28;20285;-42
2023/07/21 19:20:14;;;;;;;;;;;15.60;99.90;;;;;;12510620;28;19983;-42
2023/07/21 19:26:20;;;;;;;;;;;15.50;99.90;;;;;;12498924;28;19920;-42
2023/07/21 19:32:22;;;;;;;;;;;15.60;99.90;;;;;;12508871;28;19920;-41
2023/07/21 19:38:26;;;;;;;;;;;15.50;99.90;;;;;;12488187;28;19921;-42
2023/07/21 19:44:27;;;;;;;;;;;15.50;99.90;;;;;;12515648;28;20011;-42
2023/07/21 19:50:33;;;;;;;;;;;15.40;99.90;;;;;;12499264;28;19921;-42
2023/07/21 19:56:34;;;;;;;;;;;15.20;99.90;;;;;;12488543;28;19921;-42
2023/07/21 20:02:36;;;;;;;;;;;15.20;99.90;;;;;;12509734;28;19921;-42
2023/07/21 20:08:39;;;;;;;;;;;15.00;99.90;;;;;;12482063;28;20308;-42
2023/07/21 20:14:41;;;;;;;;;;;15.00;99.90;;;;;;12492801;28;19928;-42
2023/07/21 20:20:43;;;;;;;;;;;15.00;99.90;;;;;;12506283;28;19967;-41
2023/07/21 20:26:44;;;;;;;;;;;14.90;99.90;;;;;;12510639;28;19928;-42
2023/07/21 20:32:47;;;;;;;;;;;14.90;99.90;;;;;;12498860;28;19920;-42
2023/07/21 20:38:49;;;;;;;;;;;14.90;99.90;;;;;;12513537;28;20015;-42
2023/07/21 20:44:50;;;;;;;;;;;15.00;99.90;;;;;;12509221;28;19925;-41
2023/07/21 20:50:56;;;;;;;;;;;14.90;99.90;;;;;;12503475;28;19928;-42
2023/07/21 20:56:58;;;;;;;;;;;15.00;99.90;;;;;;12496999;28;19921;-42
2023/07/21 21:03:00;;;;;;;;;;;14.90;99.90;;;;;;12518979;28;20300;-42
2023/07/21 21:09:02;;;;;;;;;;;14.90;99.90;;;;;;12524611;28;20394;-42
2023/07/21 21:15:04;;;;;;;;;;;14.80;99.90;;;;;;12499236;28;19924;-42
2023/07/21 21:21:06;;;;;;;;;;;14.70;99.90;;;;;;12512391;28;20015;-41
2023/07/21 21:27:09;;;;;;;;;;;14.50;99.90;;;;;;12510073;28;19943;-41
2023/07/21 21:33:10;;;;;;;;;;;14.50;99.90;;;;;;12505413;28;19936;-41
2023/07/21 21:39:12;;;;;;;;;;;14.30;99.90;;;;;;12513120;28;19948;-42
2023/07/21 21:45:14;;;;;;;;;;;14.10;99.90;;;;;;12513153;28;19983;-41
2023/07/21 21:51:16;;;;;;;;;;;13.90;99.90;;;;;;12503350;28;19925;-41
2023/07/21 21:57:18;;;;;;;;;;;13.90;99.90;;;;;;12481170;28;19956;-42
2023/07/21 22:03:19;;;;;;;;;;;14.00;99.90;;;;;;12501881;28;20408;-42
2023/07/21 22:09:22;;;;;;;;;;;13.80;99.90;;;;;;12497623;28;19932;-42
2023/07/21 22:15:24;;;;;;;;;;;13.80;99.90;;;;;;12488638;28;19921;-42
2023/07/21 22:21:25;;;;;;;;;;;13.80;99.90;;;;;;12506900;28;20384;-42
2023/07/21 22:27:27;;;;;;;;;;;13.80;99.90;;;;;;12505399;28;19921;-42
2023/07/21 22:33:29;;;;;;;;;;;13.70;99.90;;;;;;12516878;28;20003;-42
2023/07/21 22:39:31;;;;;;;;;;;13.70;99.90;;;;;;12525786;28;19971;-42
2023/07/21 22:45:35;;;;;;;;;;;13.60;99.90;;;;;;12522266;28;19929;-42
2023/07/21 22:51:37;;;;;;;;;;;13.60;99.90;;;;;;12484965;28;19932;-41
2023/07/21 22:57:39;;;;;;;;;;;13.70;99.90;;;;;;12503543;28;19978;-42
2023/07/21 23:03:41;;;;;;;;;;;13.60;99.90;;;;;;12493144;28;20421;-42
2023/07/21 23:09:42;;;;;;;;;;;13.50;99.90;;;;;;12487347;28;19924;-42
2023/07/21 23:15:45;;;;;;;;;;;13.60;99.90;;;;;;12488435;28;19928;-42
2023/07/21 23:21:47;;;;;;;;;;;13.60;99.90;;;;;;12510589;28;19921;-42
2023/07/21 23:27:49;;;;;;;;;;;13.60;99.90;;;;;;12513668;28;19963;-42
2023/07/21 23:33:51;;;;;;;;;;;13.50;99.90;;;;;;12479049;28;19921;-41
2023/07/21 23:39:52;;;;;;;;;;;13.40;99.90;;;;;;12500476;28;19925;-42
2023/07/21 23:45:54;;;;;;;;;;;13.30;99.90;;;;;;12494300;28;19931;-42
2023/07/21 23:52:00;;;;;;;;;;;13.20;99.90;;;;;;12497436;28;19921;-41
2023/07/21 23:58:03;;;;;;;;;;;13.20;99.90;;;;;;12498139;28;19928;-42
